Time;durP1;ratioP1;P1;durP2;ratioP2;P2;SDS_P1;SDS_P2;PMS_P1;PMS_P2;Temp;Humidity;BMP_temperature;BMP_pressure;BME280_temperature;BME280_humidity;BME280_pressure;Samples;Min_cycle;Max_cycle;Signal;HPM_P1;HPM_P2
2023/03/12 00:00:41;;;;;;;9.67;6.43;;;;;;;-1.46;100.00;99803.75;5067376;27;20234;-72
2023/03/12 00:03:07;;;;;;;11.53;6.57;;;;;;;-1.41;100.00;99817.16;5070039;28;20172;-71
2023/03/12 00:05:36;;;;;;;14.37;7.17;;;;;;;-1.50;100.00;99819.75;5074672;28;20192;-70
2023/03/12 00:08:01;;;;;;;11.77;7.13;;;;;;;-1.51;100.00;99816.41;5101603;28;20210;-70
2023/03/12 00:10:27;;;;;;;10.90;6.17;;;;;;;-1.52;100.00;99818.97;5070128;28;20236;-75
2023/03/12 00:12:52;;;;;;;9.43;5.83;;;;;;;-1.54;100.00;99829.06;5080882;28;20216;-75
2023/03/12 00:15:18;;;;;;;12.10;6.37;;;;;;;-1.55;100.00;99827.38;5064987;28;20180;-71
2023/03/12 00:17:43;;;;;;;8.97;6.40;;;;;;;-1.62;100.00;99824.06;5080732;28;20173;-72
2023/03/12 00:20:09;;;;;;;11.77;5.87;;;;;;;-1.67;100.00;99824.97;5066537;28;20180;-71
2023/03/12 00:22:35;;;;;;;9.13;5.87;;;;;;;-1.71;100.00;99825.84;5091182;28;20557;-70
2023/03/12 00:25:01;;;;;;;10.10;5.47;;;;;;;-1.71;100.00;99826.69;5083094;28;20176;-71
2023/03/12 00:27:27;;;;;;;11.40;6.10;;;;;;;-1.67;100.00;99833.38;5074666;28;20187;-73
2023/03/12 00:29:52;;;;;;;9.10;5.50;;;;;;;-1.62;100.00;99831.63;5085622;28;20274;-72
2023/03/12 00:32:19;;;;;;;19.37;6.97;;;;;;;-1.54;100.00;99831.59;5049863;28;20231;-75
2023/03/12 00:34:50;;;;;;;16.53;5.93;;;;;;;-1.51;100.00;99830.72;5075008;28;20694;-73
2023/03/12 00:37:15;;;;;;;15.07;5.63;;;;;;;-1.46;100.00;99824.78;5074166;28;20184;-72
2023/03/12 00:39:40;;;;;;;15.90;5.20;;;;;;;-1.44;100.00;99817.19;5086403;28;20191;-75
2023/03/12 00:42:06;;;;;;;8.77;5.20;;;;;;;-1.36;100.00;99823.00;5079083;28;20643;-74
2023/03/12 00:44:31;;;;;;;15.57;6.43;;;;;;;-1.43;100.00;99818.84;5084937;28;20179;-73
2023/03/12 00:46:56;;;;;;;12.43;6.37;;;;;;;-1.41;100.00;99821.38;5078386;28;20216;-72
2023/03/12 00:49:21;;;;;;;13.47;6.93;;;;;;;-1.26;100.00;99815.34;5083203;28;20200;-73
2023/03/12 00:51:47;;;;;;;12.33;5.90;;;;;;;-1.24;100.00;99821.19;5081862;28;20266;-73
2023/03/12 00:54:12;;;;;;;14.00;6.03;;;;;;;-1.15;100.00;99824.44;5064967;28;20596;-72
2023/03/12 00:56:37;;;;;;;9.00;5.97;;;;;;;-1.16;100.00;99816.91;5080446;28;20192;-73
2023/03/12 00:59:03;;;;;;;10.03;5.60;;;;;;;-1.21;100.00;99813.59;5091990;28;20195;-74
2023/03/12 01:01:28;;;;;;;12.73;5.73;;;;;;;-1.19;100.00;99812.72;5064467;28;20279;-78
2023/03/12 01:03:54;;;;;;;12.00;6.37;;;;;;;-1.22;100.00;99816.97;5076817;28;20260;-73
2023/03/12 01:06:19;;;;;;;9.47;5.73;;;;;;;-1.29;100.00;99816.19;5071908;28;20641;-73
2023/03/12 01:08:45;;;;;;;13.07;4.60;;;;;;;-1.49;100.00;99814.72;5089113;28;20219;-73
2023/03/12 01:11:15;;;;;;;11.27;5.67;;;;;;;-1.48;100.00;99823.13;5063215;28;20241;-73
2023/03/12 01:13:40;;;;;;;6.80;4.43;;;;;;;-1.53;100.00;99822.31;5076449;28;20180;-72
2023/03/12 01:16:06;;;;;;;8.43;4.40;;;;;;;-1.44;100.00;99819.69;5075151;28;20184;-75
2023/03/12 01:18:31;;;;;;;6.57;4.73;;;;;;;-1.48;100.00;99815.53;5073682;28;20241;-74
2023/03/12 01:20:58;;;;;;;9.93;5.17;;;;;;;-1.46;100.00;99812.16;5079402;28;20244;-73
2023/03/12 01:23:23;;;;;;;10.83;6.00;;;;;;;-1.34;100.00;99808.69;5091301;28;20188;-72
2023/03/12 01:25:50;;;;;;;11.67;5.17;;;;;;;-1.37;100.00;99808.69;5074030;28;20181;-72
2023/03/12 01:28:16;;;;;;;11.43;5.80;;;;;;;-1.37;100.00;99808.69;5107303;28;20575;-75
2023/03/12 01:30:41;;;;;;;9.60;4.97;;;;;;;-1.34;100.00;99806.16;5076559;28;20219;-80
2023/03/12 01:33:07;;;;;;;8.90;5.17;;;;;;;-1.35;100.00;99804.47;5101869;28;20547;-74
2023/03/12 01:35:38;;;;;;;12.40;5.57;;;;;;;-1.30;100.00;99812.84;5092498;28;20217;-73
2023/03/12 01:38:05;;;;;;;8.87;4.70;;;;;;;-1.23;100.00;99808.53;5069263;28;20274;-73
2023/03/12 01:40:34;;;;;;;10.87;5.90;;;;;;;-1.20;100.00;99813.56;5061559;28;20327;-73
2023/03/12 01:43:21;;;;;;;9.60;5.10;;;;;;;-1.16;100.00;99816.91;5085521;28;20195;-72
2023/03/12 01:46:23;;;;;;;8.33;5.50;;;;;;;-1.14;100.00;99810.16;5073682;28;20227;-73
2023/03/12 01:48:53;;;;;;;7.87;5.70;;;;;;;-1.05;100.00;99809.22;5073524;28;20686;-72
2023/03/12 01:51:20;;;;;;;8.90;5.67;;;;;;;-0.90;100.00;99803.97;5076851;28;20257;-73
2023/03/12 01:53:49;;;;;;;12.53;5.67;;;;;;;-0.91;100.00;99802.31;5072220;28;20191;-75
2023/03/12 01:56:18;;;;;;;10.73;5.70;;;;;;;-0.76;100.00;99808.03;5073616;28;20631;-72
2023/03/12 01:58:51;;;;;;;12.00;5.40;;;;;;;-0.82;100.00;99802.19;5073484;28;20512;-72
2023/03/12 02:01:18;;;;;;;12.07;6.23;;;;;;;-0.77;100.00;99801.28;5073596;28;20686;-73
2023/03/12 02:03:47;;;;;;;11.40;5.50;;;;;;;-0.69;100.00;99797.00;5078611;28;20627;-71
2023/03/12 02:06:14;;;;;;;12.00;6.60;;;;;;;-0.70;100.00;99795.31;5059669;28;20500;-72
2023/03/12 02:08:43;;;;;;;9.57;5.77;;;;;;;-0.78;100.00;99792.91;5073518;28;20196;-72
2023/03/12 02:11:08;;;;;;;13.07;7.00;;;;;;;-0.72;100.00;99784.38;5071240;28;20670;-73
2023/03/12 02:13:37;;;;;;;12.93;6.47;;;;;;;-0.85;100.00;99769.41;5080584;28;20275;-72
2023/03/12 02:16:03;;;;;;;13.47;6.17;;;;;;;-0.76;100.00;99776.00;5059390;28;20184;-72
2023/03/12 02:18:29;;;;;;;11.17;6.03;;;;;;;-0.69;100.00;99781.84;5091390;28;20191;-72
2023/03/12 02:21:14;;;;;;;11.10;6.67;;;;;;;-0.68;100.00;99771.69;5087695;28;20311;-72
2023/03/12 02:24:01;;;;;;;19.43;7.00;;;;;;;-0.74;100.00;99773.50;5079648;28;20178;-72
2023/03/12 02:26:28;;;;;;;12.13;7.03;;;;;;;-0.69;100.00;99776.78;5076040;28;20190;-73
2023/03/12 02:28:55;;;;;;;12.10;6.10;;;;;;;-0.69;100.00;99779.31;5072732;28;20200;-73
2023/03/12 02:31:24;;;;;;;10.00;5.93;;;;;;;-0.67;100.00;99780.97;5091171;28;20268;-72
2023/03/12 02:33:51;;;;;;;11.63;6.23;;;;;;;-0.67;100.00;99780.97;5077828;28;20242;-85
2023/03/12 02:36:18;;;;;;;12.43;6.73;;;;;;;-0.58;100.00;99777.47;5073186;28;20201;-72
2023/03/12 02:38:47;;;;;;;9.17;6.53;;;;;;;-0.59;100.00;99778.31;5091489;28;20259;-73
2023/03/12 02:41:33;;;;;;;10.27;6.00;;;;;;;-0.62;100.00;99777.53;5072417;28;20215;-72
2023/03/12 02:44:13;;;;;;;14.63;7.20;;;;;;;-0.64;100.00;99767.44;5076188;28;20192;-72
2023/03/12 02:47:00;;;;;;;16.20;6.70;;;;;;;-0.68;100.00;99763.31;5072622;28;20227;-73
2023/03/12 02:49:32;;;;;;;12.37;6.47;;;;;;;-0.48;100.00;99763.00;5072880;28;20208;-72
2023/03/12 02:51:58;;;;;;;9.50;5.50;;;;;;;-0.41;100.00;99758.69;5077211;28;20608;-73
2023/03/12 02:54:25;;;;;;;9.50;6.33;;;;;;;-0.33;100.00;99757.72;5089064;28;20203;-72
2023/03/12 02:56:50;;;;;;;10.80;6.83;;;;;;;-0.33;100.00;99755.19;5061972;28;20615;-72
2023/03/12 02:59:16;;;;;;;7.53;6.10;;;;;;;-0.42;100.00;99744.38;5106689;28;20184;-74
2023/03/12 03:01:42;;;;;;;12.93;5.80;;;;;;;-0.35;100.00;99758.59;5076328;28;20302;-72
2023/03/12 03:04:10;;;;;;;10.27;5.93;;;;;;;-0.39;100.00;99750.22;5074598;28;20275;-72
2023/03/12 03:06:38;;;;;;;10.30;5.80;;;;;;;-0.26;100.00;99752.56;5072713;28;20219;-72
2023/03/12 03:09:04;;;;;;;10.60;6.33;;;;;;;-0.30;100.00;99746.72;5072737;28;20197;-73
2023/03/12 03:11:29;;;;;;;11.50;5.70;;;;;;;-0.30;100.00;99749.25;5092149;27;20296;-73
2023/03/12 03:13:54;;;;;;;18.13;7.00;;;;;;;-0.25;100.00;99747.50;5094281;28;20198;-73
2023/03/12 03:16:21;;;;;;;10.60;6.73;;;;;;;-0.21;100.00;99748.28;5077423;28;20180;-73
2023/03/12 03:18:46;;;;;;;10.30;6.73;;;;;;;-0.27;100.00;99748.38;5072864;28;20264;-73
2023/03/12 03:21:15;;;;;;;11.40;6.13;;;;;;;-0.25;100.00;99747.50;5071527;28;20290;-73
2023/03/12 03:23:42;;;;;;;11.07;5.93;;;;;;;-0.15;100.00;99745.63;5080455;28;20176;-72
2023/03/12 03:26:07;;;;;;;13.50;5.63;;;;;;;-0.14;100.00;99739.72;5075858;28;20204;-73
2023/03/12 03:28:33;;;;;;;12.13;5.80;;;;;;;-0.10;100.00;99743.03;5075814;28;20231;-74
2023/03/12 03:31:00;;;;;;;8.93;6.87;;;;;;;-0.07;100.00;99748.88;5082062;28;20227;-73
2023/03/12 03:33:26;;;;;;;9.40;5.83;;;;;;;-0.11;100.00;99747.28;5084095;28;20237;-72
2023/03/12 03:35:54;;;;;;;11.23;6.57;;;;;;;-0.19;100.00;99739.84;5075756;28;20187;-72
2023/03/12 03:38:19;;;;;;;12.47;6.10;;;;;;;-0.19;100.00;99747.41;5075967;28;20256;-72
2023/03/12 03:40:45;;;;;;;12.33;6.60;;;;;;;-0.27;100.00;99749.22;5084340;28;20584;-72
2023/03/12 03:43:10;;;;;;;18.57;7.17;;;;;;;-0.19;100.00;99746.56;5077388;28;20707;-72
2023/03/12 03:45:35;;;;;;;12.27;6.63;;;;;;;-0.22;100.00;99749.16;5093743;28;20180;-72
2023/03/12 03:48:01;;;;;;;11.83;6.60;;;;;;;-0.27;100.00;99744.16;5075559;28;20201;-74
2023/03/12 03:50:26;;;;;;;12.03;6.30;;;;;;;-0.29;100.00;99745.88;5086368;28;20223;-73
2023/03/12 03:52:51;;;;;;;8.53;6.03;;;;;;;-0.21;100.00;99749.13;5106209;28;20237;-74
2023/03/12 03:55:17;;;;;;;8.93;5.77;;;;;;;-0.21;100.00;99751.66;5093874;28;20223;-73
2023/03/12 03:57:42;;;;;;;12.47;6.00;;;;;;;-0.20;100.00;99757.53;5093817;28;20546;-73
2023/03/12 04:00:08;;;;;;;9.87;6.73;;;;;;;-0.26;100.00;99753.41;5073156;28;20560;-73
2023/03/12 04:02:34;;;;;;;8.77;5.63;;;;;;;-0.25;100.00;99752.56;5074197;28;20204;-73
2023/03/12 04:04:59;;;;;;;8.77;5.73;;;;;;;-0.19;100.00;99752.47;5093332;28;20650;-73
2023/03/12 04:07:26;;;;;;;10.40;6.20;;;;;;;-0.19;100.00;99744.03;5093774;28;20195;-72
2023/03/12 04:09:52;;;;;;;8.90;5.37;;;;;;;-0.15;100.00;99744.81;5075064;28;20176;-71
2023/03/12 04:12:17;;;;;;;8.77;6.30;;;;;;;-0.08;100.00;99746.41;5098645;28;20763;-72
2023/03/12 04:14:42;;;;;;;12.37;5.93;;;;;;;-0.05;100.00;99744.66;5088977;28;20680;-72
2023/03/12 04:17:08;;;;;;;10.63;6.70;;;;;;;-0.11;100.00;99739.69;5072481;28;20235;-71
2023/03/12 04:19:33;;;;;;;9.43;6.10;;;;;;;-0.06;100.00;99730.34;5075091;28;20183;-71
2023/03/12 04:21:59;;;;;;;15.23;6.53;;;;;;;-0.08;100.00;99734.56;5097748;27;20314;-72
2023/03/12 04:24:24;;;;;;;11.03;6.93;;;;;;;-0.06;100.00;99732.88;5093452;28;20249;-72
2023/03/12 04:26:50;;;;;;;8.20;5.73;;;;;;;-0.33;100.00;99732.44;5093402;28;20635;-72
2023/03/12 04:29:16;;;;;;;8.47;6.53;;;;;;;-0.30;100.00;99731.56;5093192;28;20230;-73
2023/03/12 04:31:41;;;;;;;10.03;6.30;;;;;;;-0.28;100.00;99717.22;5057143;28;20693;-73
2023/03/12 04:34:08;;;;;;;8.00;5.73;;;;;;;-0.33;100.00;99732.44;5092683;28;20229;-73
2023/03/12 04:36:33;;;;;;;9.17;6.07;;;;;;;-0.27;100.00;99728.16;5064714;28;20183;-73
2023/03/12 04:38:58;;;;;;;12.40;6.50;;;;;;;-0.21;100.00;99731.44;5064432;28;20374;-73
2023/03/12 04:41:26;;;;;;;12.27;6.77;;;;;;;-0.12;100.00;99738.03;5058792;28;20712;-72
2023/03/12 04:43:52;;;;;;;7.80;6.83;;;;;;;-0.19;100.00;99728.88;5096977;28;20192;-73
2023/03/12 04:46:17;;;;;;;10.07;7.30;;;;;;;-0.33;100.00;99734.97;5091817;28;20306;-72
2023/03/12 04:48:42;;;;;;;11.50;6.90;;;;;;;-0.20;100.00;99732.25;5080019;28;20196;-72
2023/03/12 04:51:08;;;;;;;10.83;6.47;;;;;;;-0.17;100.00;99727.16;5056512;28;20311;-72
2023/03/12 04:53:33;;;;;;;8.10;6.33;;;;;;;-0.17;100.00;99722.91;5099182;28;20578;-72
2023/03/12 04:55:58;;;;;;;6.93;5.53;;;;;;;-0.07;100.00;99728.66;5092376;28;20184;-72
2023/03/12 04:58:24;;;;;;;14.20;6.90;;;;;;;0.04;100.00;99730.16;5092751;28;20679;-73
2023/03/12 05:00:50;;;;;;;8.90;6.50;;;;;;;0.03;100.00;99734.41;5088273;28;20223;-76
2023/03/12 05:03:16;;;;;;;9.27;6.90;;;;;;;0.00;100.00;99721.81;5083813;28;20176;-74
2023/03/12 05:05:42;;;;;;;11.40;6.77;;;;;;;-0.04;100.00;99720.19;5074038;28;20180;-75
2023/03/12 05:08:07;;;;;;;21.13;8.53;;;;;;;-0.14;100.00;99722.03;5074110;28;20620;-73
2023/03/12 05:10:33;;;;;;;9.10;6.63;;;;;;;-0.04;100.00;99718.50;5064786;28;20243;-74
2023/03/12 05:12:58;;;;;;;8.60;6.30;;;;;;;0.10;100.00;99725.00;5093037;28;20210;-73
2023/03/12 05:15:23;;;;;;;10.90;6.63;;;;;;;0.07;100.00;99722.53;5074093;28;20275;-73
2023/03/12 05:17:49;;;;;;;20.43;9.70;;;;;;;0.11;100.00;99727.53;5073551;28;20180;-74
2023/03/12 05:20:16;;;;;;;13.50;8.40;;;;;;;-0.05;100.00;99724.41;5083447;28;20662;-72
2023/03/12 05:22:42;;;;;;;10.50;7.77;;;;;;;-0.09;100.00;99727.03;5088401;28;20528;-73
2023/03/12 05:25:07;;;;;;;12.60;7.53;;;;;;;-0.08;100.00;99719.41;5078715;28;20367;-73
2023/03/12 05:27:33;;;;;;;11.50;8.80;;;;;;;-0.18;100.00;99718.72;5062054;28;20658;-72
2023/03/12 05:29:58;;;;;;;17.07;8.50;;;;;;;-0.07;100.00;99725.31;5076577;28;20211;-71
2023/03/12 05:32:23;;;;;;;13.70;8.20;;;;;;;-0.01;100.00;99720.16;5081153;28;20286;-73
2023/03/12 05:34:49;;;;;;;14.13;7.73;;;;;;;-0.03;100.00;99717.63;5092636;28;20514;-72
2023/03/12 05:37:14;;;;;;;15.13;8.60;;;;;;;-0.09;100.00;99709.31;5087403;28;20182;-72
2023/03/12 05:39:45;;;;;;;11.87;8.03;;;;;;;-0.06;100.00;99714.34;5083584;28;20218;-72
2023/03/12 05:42:11;;;;;;;12.03;8.67;;;;;;;0.02;100.00;99704.91;5096594;28;20220;-72
2023/03/12 05:44:37;;;;;;;13.73;8.67;;;;;;;-0.14;100.00;99694.22;5073813;28;20542;-72
2023/03/12 05:47:02;;;;;;;14.20;8.60;;;;;;;-0.08;100.00;99699.19;5072564;28;20220;-72
2023/03/12 05:49:27;;;;;;;13.47;8.43;;;;;;;-0.01;100.00;99693.16;5091650;28;20238;-72
2023/03/12 05:51:53;;;;;;;11.70;8.33;;;;;;;-0.04;100.00;99688.16;5095342;28;20284;-72
2023/03/12 05:54:19;;;;;;;9.23;8.20;;;;;;;-0.08;100.00;99690.75;5074644;28;20593;-72
2023/03/12 05:56:44;;;;;;;14.70;8.97;;;;;;;-0.05;100.00;99678.91;5073255;28;20183;-72
2023/03/12 05:59:10;;;;;;;14.30;8.73;;;;;;;-0.09;100.00;99678.97;5091821;28;20548;-72
2023/03/12 06:01:35;;;;;;;12.83;8.20;;;;;;;-0.20;100.00;99684.22;5075750;28;20219;-72
2023/03/12 06:04:01;;;;;;;20.87;8.73;;;;;;;-0.22;100.00;99679.19;5065393;28;20610;-72
2023/03/12 06:06:28;;;;;;;15.73;9.50;;;;;;;-0.25;100.00;99691.03;5089779;28;20173;-74
2023/03/12 06:08:53;;;;;;;18.07;8.13;;;;;;;-0.17;100.00;99689.22;5073241;28;20200;-73
2023/03/12 06:11:19;;;;;;;16.93;8.93;;;;;;;-0.20;100.00;99685.06;5073703;28;20223;-73
2023/03/12 06:13:44;;;;;;;17.03;8.83;;;;;;;-0.21;100.00;99696.03;5096641;28;20253;-72
2023/03/12 06:16:21;;;;;;;14.33;9.20;;;;;;;-0.17;100.00;99701.88;5090985;28;20188;-73
2023/03/12 06:18:47;;;;;;;13.77;8.63;;;;;;;-0.21;100.00;99698.56;5073144;28;20638;-77
2023/03/12 06:21:16;;;;;;;12.83;8.30;;;;;;;-0.21;100.00;99706.16;5072718;28;20235;-72
2023/03/12 06:23:41;;;;;;;9.33;8.20;;;;;;;-0.33;100.00;99702.13;5079305;28;20193;-73
2023/03/12 06:26:08;;;;;;;11.03;7.90;;;;;;;-0.40;100.00;99712.34;5091431;28;20263;-73
2023/03/12 06:28:33;;;;;;;13.33;8.63;;;;;;;-0.43;100.00;99708.19;5091217;28;20310;-73
2023/03/12 06:31:00;;;;;;;18.30;8.57;;;;;;;-0.55;100.00;99703.31;5088119;28;20215;-72
2023/03/12 06:33:25;;;;;;;13.17;7.77;;;;;;;-0.41;100.00;99705.63;5081304;28;20558;-73
2023/03/12 06:35:56;;;;;;;14.53;7.83;;;;;;;-0.31;100.00;99709.69;5091031;28;20196;-73
2023/03/12 06:38:22;;;;;;;11.37;7.90;;;;;;;-0.10;100.00;99710.19;5072892;28;20187;-73
2023/03/12 06:41:06;;;;;;;10.33;7.33;;;;;;;-0.11;100.00;99704.31;5068834;28;20223;-73
2023/03/12 06:43:33;;;;;;;10.63;7.10;;;;;;;0.15;100.00;99703.00;5069287;28;20199;-74
2023/03/12 06:45:59;;;;;;;10.00;7.80;;;;;;;0.24;100.00;99710.41;5072779;28;20225;-73
2023/03/12 06:48:26;;;;;;;12.20;7.93;;;;;;;0.24;100.00;99712.13;5072963;28;20295;-73
2023/03/12 06:50:52;;;;;;;14.87;9.07;;;;;;;0.36;100.00;99709.38;5069424;28;20220;-73
2023/03/12 06:53:18;;;;;;;16.50;8.53;;;;;;;0.24;100.00;99710.41;5099831;28;20269;-73
2023/03/12 06:55:44;;;;;;;9.53;8.53;;;;;;;0.14;100.00;99701.34;5072600;28;20203;-73
2023/03/12 06:58:10;;;;;;;8.63;7.10;;;;;;;-0.01;100.00;99700.75;5075549;28;20179;-72
2023/03/12 07:00:35;;;;;;;9.33;7.97;;;;;;;-0.28;100.00;99699.50;5088702;27;20571;-72
2023/03/12 07:03:01;;;;;;;11.77;8.03;;;;;;;-0.26;100.00;99699.47;5088327;28;20173;-72
2023/03/12 07:05:27;;;;;;;10.70;7.77;;;;;;;-0.42;100.00;99702.28;5076648;28;20594;-74
2023/03/12 07:07:52;;;;;;;11.50;8.73;;;;;;;-0.38;100.00;99700.53;5094528;28;20206;-75
2023/03/12 07:10:17;;;;;;;15.23;9.33;;;;;;;-0.55;100.00;99701.63;5086048;27;20180;-74
2023/03/12 07:12:43;;;;;;;9.60;8.53;;;;;;;-0.64;100.00;99689.13;5090425;28;20176;-72
2023/03/12 07:15:09;;;;;;;10.67;8.80;;;;;;;-0.59;100.00;99689.06;5076401;28;20211;-72
2023/03/12 07:17:34;;;;;;;13.20;8.90;;;;;;;-0.73;100.00;99700.22;5094470;28;20208;-73
2023/03/12 07:20:00;;;;;;;10.20;8.87;;;;;;;-0.75;100.00;99706.97;5063813;28;20237;-72
2023/03/12 07:22:25;;;;;;;15.03;8.97;;;;;;;-0.65;100.00;99710.19;5078965;28;20577;-72
2023/03/12 07:24:50;;;;;;;11.70;8.47;;;;;;;-0.73;100.00;99714.50;5074007;28;20196;-72
2023/03/12 07:27:16;;;;;;;11.57;9.57;;;;;;;-0.65;100.00;99720.31;5069685;28;20666;-73
2023/03/12 07:29:42;;;;;;;14.83;8.90;;;;;;;-0.61;100.00;99724.44;5076081;28;20200;-71
2023/03/12 07:32:07;;;;;;;13.10;10.50;;;;;;;-0.45;100.00;99729.28;5086471;27;20791;-70
2023/03/12 07:34:33;;;;;;;14.27;10.03;;;;;;;-0.35;100.00;99718.16;5101342;28;20176;-72
2023/03/12 07:36:58;;;;;;;12.90;9.57;;;;;;;-0.34;100.00;99715.59;5075939;28;20186;-74
2023/03/12 07:39:24;;;;;;;11.37;8.77;;;;;;;-0.25;100.00;99704.53;5075776;28;20176;-72
2023/03/12 07:41:49;;;;;;;13.13;8.57;;;;;;;-0.18;100.00;99692.63;5097564;28;20211;-72
2023/03/12 07:44:15;;;;;;;11.73;8.17;;;;;;;-0.26;100.00;99686.84;5074713;28;20263;-72
2023/03/12 07:46:40;;;;;;;13.40;8.83;;;;;;;-0.44;100.00;99693.03;5069158;28;20230;-75
2023/03/12 07:49:05;;;;;;;13.87;10.60;;;;;;;-0.61;100.00;99703.41;5093387;28;20824;-75
2023/03/12 07:51:31;;;;;;;11.53;10.13;;;;;;;-0.66;100.00;99708.53;5083203;28;20223;-74
2023/03/12 07:53:56;;;;;;;15.37;9.53;;;;;;;-0.60;100.00;99716.00;5066048;28;20198;-76
2023/03/12 07:56:21;;;;;;;10.97;8.87;;;;;;;-0.63;100.00;99711.00;5075653;28;20180;-73
2023/03/12 07:58:47;;;;;;;13.43;9.10;;;;;;;-0.46;100.00;99717.50;5075487;28;20203;-75
2023/03/12 08:01:12;;;;;;;15.60;9.63;;;;;;;-0.52;100.00;99714.22;5082062;28;20729;-73
2023/03/12 08:03:38;;;;;;;14.17;11.40;;;;;;;-0.03;100.00;99720.16;5078606;28;20501;-71
2023/03/12 08:06:04;;;;;;;15.20;10.17;;;;;;;0.05;100.00;99715.00;5086414;28;20352;-71
2023/03/12 08:08:30;;;;;;;14.93;9.37;;;;;;;0.10;100.00;99709.81;5072895;28;20623;-72
2023/03/12 08:10:56;;;;;;;12.43;9.90;;;;;;;0.05;100.00;99709.06;5082081;28;20235;-70
2023/03/12 08:13:23;;;;;;;14.40;9.90;;;;;;;0.22;100.00;99711.31;5076062;28;20191;-70
2023/03/12 08:15:50;;;;;;;15.93;10.37;;;;;;;0.36;100.00;99714.44;5089464;27;20305;-70
2023/03/12 08:18:16;;;;;;;14.07;10.37;;;;;;;0.51;100.00;99705.72;5085154;28;20180;-70
2023/03/12 08:20:41;;;;;;;16.43;10.30;;;;;;;0.51;100.00;99717.50;5057624;28;20229;-71
2023/03/12 08:23:06;;;;;;;18.33;10.10;;;;;;;0.61;100.00;99724.91;5102024;28;20184;-71
2023/03/12 08:25:32;;;;;;;13.47;9.47;;;;;;;0.59;100.00;99729.16;5093317;28;20632;-71
2023/03/12 08:27:57;;;;;;;11.23;10.07;;;;;;;0.71;100.00;99735.69;5093019;28;20207;-71
2023/03/12 08:30:22;;;;;;;13.07;9.77;;;;;;;0.26;100.00;99733.16;5064874;28;20288;-70
2023/03/12 08:32:47;;;;;;;12.63;10.90;;;;;;;0.13;100.00;99730.03;5087192;28;20480;-70
2023/03/12 08:35:13;;;;;;;17.53;10.73;;;;;;;0.14;100.00;99735.03;5093334;28;20184;-70
2023/03/12 08:37:38;;;;;;;12.97;9.43;;;;;;;0.30;100.00;99722.13;5092971;28;20267;-71
2023/03/12 08:40:13;;;;;;;10.90;9.33;;;;;;;0.46;100.00;99712.56;5082552;27;20176;-70
2023/03/12 08:42:40;;;;;;;11.47;9.60;;;;;;;0.57;100.00;99702.22;5089543;28;20635;-71
2023/03/12 08:45:07;;;;;;;11.90;10.23;;;;;;;0.50;100.00;99705.72;5074887;28;20206;-72
2023/03/12 08:47:33;;;;;;;13.13;10.60;;;;;;;0.48;100.00;99696.50;5092788;28;20231;-72
2023/03/12 08:49:58;;;;;;;16.50;8.90;;;;;;;0.57;100.00;99698.00;5092494;28;20491;-71
2023/03/12 08:52:27;;;;;;;14.13;8.53;;;;;;;0.67;100.00;99702.88;5080643;28;20375;-72
2023/03/12 08:54:53;;;;;;;9.87;7.50;;;;;;;0.83;100.00;99706.75;5092733;28;20624;-71
2023/03/12 08:57:18;;;;;;;15.60;9.27;;;;;;;0.79;100.00;99702.63;5087898;28;20223;-72
2023/03/12 08:59:43;;;;;;;9.57;8.33;;;;;;;1.04;100.00;99712.22;5086082;28;20180;-72
2023/03/12 09:02:12;;;;;;;12.97;9.30;;;;;;;1.30;100.00;99714.19;5074012;28;20227;-72
2023/03/12 09:04:37;;;;;;;19.40;12.60;;;;;;;1.21;100.00;99722.00;5067920;28;20179;-72
2023/03/12 09:07:03;;;;;;;13.70;10.33;;;;;;;1.24;100.00;99712.63;5092296;28;20193;-72
2023/03/12 09:09:29;;;;;;;10.20;9.20;;;;;;;1.34;100.00;99709.88;5092299;28;20209;-73
2023/03/12 09:11:54;;;;;;;15.00;8.63;;;;;;;1.23;100.00;99702.53;5079035;28;20220;-75
2023/03/12 09:14:20;;;;;;;12.30;8.87;;;;;;;1.22;100.00;99693.28;5092775;28;20270;-73
2023/03/12 09:16:45;;;;;;;13.13;8.87;;;;;;;1.31;100.00;99692.22;5092313;28;20176;-72
2023/03/12 09:19:10;;;;;;;17.63;9.17;;;;;;;0.97;100.00;99693.81;5084009;28;20189;-72
2023/03/12 09:21:36;;;;;;;15.10;10.57;;;;;;;1.14;100.00;99695.94;5088441;28;20226;-72
2023/03/12 09:24:01;;;;;;;17.50;10.53;;;;;;;1.35;100.00;99697.16;5095068;28;20192;-72
2023/03/12 09:26:26;;;;;;;16.07;10.43;;;;;;;1.59;100.00;99700.03;5073894;28;20233;-72
2023/03/12 09:28:52;;;;;;;12.77;9.43;;;;;;;1.76;100.00;99708.03;5073863;28;20290;-73
2023/03/12 09:31:17;;;;;;;14.47;10.73;;;;;;;1.82;100.00;99706.22;5073993;28;20401;-73
2023/03/12 09:33:43;;;;;;;15.50;9.73;;;;;;;1.64;100.00;99695.66;5097284;28;20200;-72
2023/03/12 09:36:08;;;;;;;12.10;9.87;;;;;;;1.62;100.00;99694.84;5091341;28;20198;-72
2023/03/12 09:38:34;;;;;;;14.97;9.10;;;;;;;1.76;100.00;99700.44;5073778;28;20278;-72
2023/03/12 09:41:02;;;;;;;14.03;9.90;;;;;;;1.85;100.00;99696.00;5088750;27;20236;-71
2023/03/12 09:43:38;;;;;;;18.73;10.13;;;;;;;1.83;100.00;99707.91;5081940;28;20172;-72
2023/03/12 09:46:12;;;;;;;11.87;10.30;;;;;;;1.73;100.00;99704.75;5073335;28;20225;-71
2023/03/12 09:48:40;;;;;;;16.03;11.03;;;;;;;1.91;100.00;99704.28;5073911;28;20225;-71
2023/03/12 09:51:31;;;;;;;19.47;10.87;;;;;;;1.89;100.00;99703.50;5089737;28;20229;-71
2023/03/12 09:54:05;;;;;;;16.40;10.20;;;;;;;2.14;100.00;99712.19;5076995;28;20210;-71
2023/03/12 09:56:32;;;;;;;14.90;9.63;;;;;;;2.42;100.00;99708.03;5073667;28;20170;-70
2023/03/12 09:58:57;;;;;;;16.20;10.67;;;;;;;2.55;100.00;99712.78;5073330;28;20247;-70
2023/03/12 10:01:31;;;;;;;17.87;11.90;;;;;;;2.65;100.00;99705.75;5091925;27;20310;-70
2023/03/12 10:04:06;;;;;;;17.03;11.70;;;;;;;2.74;100.00;99708.00;5076842;28;20194;-70
2023/03/12 10:06:59;;;;;;;18.83;11.80;;;;;;;2.87;100.00;99709.31;5073512;28;20689;-70
2023/03/12 10:09:34;;;;;;;15.60;11.37;;;;;;;3.25;100.00;99723.47;5062048;28;20195;-70
2023/03/12 10:12:28;;;;;;;16.73;11.47;;;;;;;3.69;100.00;99721.25;5078456;28;20252;-71
2023/03/12 10:15:36;;;;;;;18.57;12.90;;;;;;;3.66;100.00;99724.75;5091020;28;20222;-70
2023/03/12 10:18:25;;;;;;;17.70;13.27;;;;;;;3.45;100.00;99720.31;5065022;28;20197;-70
2023/03/12 10:20:54;;;;;;;18.93;12.13;;;;;;;3.21;100.00;99718.50;5087265;27;20227;-70
2023/03/12 10:23:27;;;;;;;19.20;12.10;;;;;;;3.45;100.00;99711.00;5082192;28;20253;-70
2023/03/12 10:26:03;;;;;;;15.93;11.50;;;;;;;3.63;100.00;99717.19;5072872;28;20184;-71
2023/03/12 10:28:44;;;;;;;19.77;12.87;;;;;;;3.66;100.00;99709.47;5070740;28;20214;-70
2023/03/12 10:31:16;;;;;;;17.47;11.23;;;;;;;3.97;100.00;99711.00;5076684;27;20249;-69
2023/03/12 10:33:49;;;;;;;19.67;11.27;;;;;;;4.10;100.00;99698.69;5070384;28;20290;-71
2023/03/12 10:36:19;;;;;;;12.93;10.90;;;;;;;4.00;100.00;99694.81;5077319;28;20704;-70
2023/03/12 10:38:47;;;;;;;13.73;11.37;;;;;;;4.69;100.00;99689.81;5076823;28;20204;-70
2023/03/12 10:41:31;;;;;;;14.10;11.00;;;;;;;4.94;100.00;99686.34;5076240;28;20655;-72
2023/03/12 10:44:02;;;;;;;13.07;10.17;;;;;;;4.26;100.00;99683.72;5098749;28;20225;-72
2023/03/12 10:46:58;;;;;;;16.10;10.93;;;;;;;4.53;100.00;99681.09;5076810;28;20220;-71
2023/03/12 10:49:31;;;;;;;14.63;10.90;;;;;;;5.18;100.00;99681.19;5076831;28;20202;-71
2023/03/12 10:52:16;;;;;;;11.63;10.40;;;;;;;5.29;100.00;99688.44;5082237;28;20235;-74
2023/03/12 10:54:44;;;;;;;13.40;10.43;;;;;;;5.13;100.00;99685.66;5094945;28;20260;-71
2023/03/12 10:57:11;;;;;;;15.67;9.97;;;;;;;5.04;100.00;99671.53;5076913;28;20177;-71
2023/03/12 10:59:42;;;;;;;10.60;9.60;;;;;;;5.19;100.00;99672.66;5076337;28;20174;-71
2023/03/12 11:02:31;;;;;;;11.63;9.20;;;;;;;5.50;100.00;99676.56;5082518;28;20244;-71
2023/03/12 11:04:58;;;;;;;11.90;9.97;;;;;;;5.69;100.00;99674.06;5076692;28;20180;-73
2023/03/12 11:07:30;;;;;;;10.80;9.00;;;;;;;6.11;100.00;99680.03;5076432;28;20210;-70
2023/03/12 11:10:04;;;;;;;15.97;11.10;;;;;;;5.80;100.00;99687.25;5076263;28;20182;-70
2023/03/12 11:12:30;;;;;;;9.63;8.47;;;;;;;6.16;100.00;99684.94;5065578;28;20613;-70
2023/03/12 11:14:56;;;;;;;12.87;9.77;;;;;;;6.37;100.00;99680.63;5076352;28;20233;-70
2023/03/12 11:17:28;;;;;;;11.20;8.13;;;;;;;6.24;100.00;99688.00;5080768;28;20267;-72
2023/03/12 11:19:53;;;;;;;10.57;9.00;;;;;;;6.52;100.00;99682.50;5094346;28;20187;-71
2023/03/12 11:22:31;;;;;;;11.47;8.40;;;;;;;6.71;100.00;99677.41;5099545;27;20610;-71